sensor_id;sensor_type;location;lat;lon;timestamp;temperature;humidity
27004;DHT22;14546;47.590;19.022;2023-07-09T05:58:02;20.80;61.00
27004;DHT22;14546;47.590;19.022;2023-07-09T06:00:28;20.90;73.10
27004;DHT22;14546;47.590;19.022;2023-07-09T06:02:54;20.90;72.50
27004;DHT22;14546;47.590;19.022;2023-07-09T06:05:20;21.00;72.00
27004;DHT22;14546;47.590;19.022;2023-07-09T06:07:47;21.20;71.60
27004;DHT22;14546;47.590;19.022;2023-07-09T06:10:12;21.40;71.00
27004;DHT22;14546;47.590;19.022;2023-07-09T06:12:41;21.60;71.00
27004;DHT22;14546;47.590;19.022;2023-07-09T06:15:07;21.80;69.40
27004;DHT22;14546;47.590;19.022;2023-07-09T06:17:33;22.00;68.50
27004;DHT22;14546;47.590;19.022;2023-07-09T06:19:59;22.20;67.80
27004;DHT22;14546;47.590;19.022;2023-07-09T06:22:25;22.40;66.80
27004;DHT22;14546;47.590;19.022;2023-07-09T06:24:51;22.50;65.90
27004;DHT22;14546;47.590;19.022;2023-07-09T06:29:43;22.70;65.00
27004;DHT22;14546;47.590;19.022;2023-07-09T06:32:09;23.00;63.60
27004;DHT22;14546;47.590;19.022;2023-07-09T06:34:35;23.20;63.70
27004;DHT22;14546;47.590;19.022;2023-07-09T06:37:00;23.30;63.00
27004;DHT22;14546;47.590;19.022;2023-07-09T06:39:26;23.40;62.30
27004;DHT22;14546;47.590;19.022;2023-07-09T06:41:52;23.60;61.60
27004;DHT22;14546;47.590;19.022;2023-07-09T06:44:18;23.70;61.30
27004;DHT22;14546;47.590;19.022;2023-07-09T06:56:32;23.90;60.80
27004;DHT22;14546;47.590;19.022;2023-07-09T06:58:57;24.60;59.10
27004;DHT22;14546;47.590;19.022;2023-07-09T07:01:23;24.80;58.70
27004;DHT22;14546;47.590;19.022;2023-07-09T07:03:49;24.90;57.70
27004;DHT22;14546;47.590;19.022;2023-07-09T07:06:16;25.00;56.90
27004;DHT22;14546;47.590;19.022;2023-07-09T07:08:42;25.10;56.30
27004;DHT22;14546;47.590;19.022;2023-07-09T07:11:07;25.20;56.00
27004;DHT22;14546;47.590;19.022;2023-07-09T07:13:40;25.40;55.30
27004;DHT22;14546;47.590;19.022;2023-07-09T07:18:34;25.50;54.90
27004;DHT22;14546;47.590;19.022;2023-07-09T07:23:28;25.80;54.50
27004;DHT22;14546;47.590;19.022;2023-07-09T07:25:54;26.00;54.70
27004;DHT22;14546;47.590;19.022;2023-07-09T07:28:20;26.10;54.40
27004;DHT22;14546;47.590;19.022;2023-07-09T07:30:46;26.20;54.20
27004;DHT22;14546;47.590;19.022;2023-07-09T07:33:14;26.30;54.00
27004;DHT22;14546;47.590;19.022;2023-07-09T07:35:41;26.40;53.40
27004;DHT22;14546;47.590;19.022;2023-07-09T07:38:06;26.40;53.20
27004;DHT22;14546;47.590;19.022;2023-07-09T07:40:32;26.50;52.50
27004;DHT22;14546;47.590;19.022;2023-07-09T07:42:59;26.60;52.00
27004;DHT22;14546;47.590;19.022;2023-07-09T07:45:24;26.60;51.60
27004;DHT22;14546;47.590;19.022;2023-07-09T07:47:50;26.70;51.70
27004;DHT22;14546;47.590;19.022;2023-07-09T07:50:18;26.80;51.10
27004;DHT22;14546;47.590;19.022;2023-07-09T08:04:56;26.90;50.50
27004;DHT22;14546;47.590;19.022;2023-07-09T08:07:21;27.40;49.30
27004;DHT22;14546;47.590;19.022;2023-07-09T08:09:47;27.40;49.40
27004;DHT22;14546;47.590;19.022;2023-07-09T08:12:14;27.50;49.10
27004;DHT22;14546;47.590;19.022;2023-07-09T08:14:41;27.60;48.80
27004;DHT22;14546;47.590;19.022;2023-07-09T08:17:07;27.60;48.00
27004;DHT22;14546;47.590;19.022;2023-07-09T08:19:49;27.70;47.90
27004;DHT22;14546;47.590;19.022;2023-07-09T08:22:15;27.70;47.70
27004;DHT22;14546;47.590;19.022;2023-07-09T08:24:42;27.80;47.80
27004;DHT22;14546;47.590;19.022;2023-07-09T08:27:11;27.80;47.40
27004;DHT22;14546;47.590;19.022;2023-07-09T08:29:37;27.90;47.00
27004;DHT22;14546;47.590;19.022;2023-07-09T08:32:03;27.90;46.40
27004;DHT22;14546;47.590;19.022;2023-07-09T08:34:29;28.00;46.40
27004;DHT22;14546;47.590;19.022;2023-07-09T08:36:55;28.00;46.10
27004;DHT22;14546;47.590;19.022;2023-07-09T08:39:21;28.10;45.80
27004;DHT22;14546;47.590;19.022;2023-07-09T08:42:10;28.10;46.00
27004;DHT22;14546;47.590;19.022;2023-07-09T08:47:56;28.20;44.70
27004;DHT22;14546;47.590;19.022;2023-07-09T08:50:27;28.30;44.20
27004;DHT22;14546;47.590;19.022;2023-07-09T08:52:57;28.30;44.20
27004;DHT22;14546;47.590;19.022;2023-07-09T08:55:30;28.40;43.60
27004;DHT22;14546;47.590;19.022;2023-07-09T08:58:05;28.50;43.70
27004;DHT22;14546;47.590;19.022;2023-07-09T09:03:15;28.70;42.30
27004;DHT22;14546;47.590;19.022;2023-07-09T09:05:45;28.70;41.20
27004;DHT22;14546;47.590;19.022;2023-07-09T09:11:29;28.90;41.00
27004;DHT22;14546;47.590;19.022;2023-07-09T09:18:59;29.00;39.50
27004;DHT22;14546;47.590;19.022;2023-07-09T09:21:36;29.10;40.40
27004;DHT22;14546;47.590;19.022;2023-07-09T09:25:24;29.10;41.20
27004;DHT22;14546;47.590;19.022;2023-07-09T09:27:17;29.20;41.10
27004;DHT22;14546;47.590;19.022;2023-07-09T09:29:42;29.20;40.40
27004;DHT22;14546;47.590;19.022;2023-07-09T17:42:58;30.70;40.30
27004;DHT22;14546;47.590;19.022;2023-07-09T17:45:25;30.30;41.20
27004;DHT22;14546;47.590;19.022;2023-07-09T17:47:52;30.10;41.80
27004;DHT22;14546;47.590;19.022;2023-07-09T17:50:21;29.90;42.80
27004;DHT22;14546;47.590;19.022;2023-07-09T17:52:48;29.70;43.60
27004;DHT22;14546;47.590;19.022;2023-07-09T17:57:43;29.50;43.90
27004;DHT22;14546;47.590;19.022;2023-07-09T18:00:24;29.10;44.50
27004;DHT22;14546;47.590;19.022;2023-07-09T18:05:29;28.90;45.00
27004;DHT22;14546;47.590;19.022;2023-07-09T18:07:56;28.50;45.80
27004;DHT22;14546;47.590;19.022;2023-07-09T18:10:27;28.30;45.40
27004;DHT22;14546;47.590;19.022;2023-07-09T18:13:06;28.10;45.90
27004;DHT22;14546;47.590;19.022;2023-07-09T18:15:33;27.90;46.40
27004;DHT22;14546;47.590;19.022;2023-07-09T18:18:00;27.70;46.70
27004;DHT22;14546;47.590;19.022;2023-07-09T18:20:26;27.50;47.10
27004;DHT22;14546;47.590;19.022;2023-07-09T18:22:52;27.30;47.40
27004;DHT22;14546;47.590;19.022;2023-07-09T18:25:19;27.20;47.60
27004;DHT22;14546;47.590;19.022;2023-07-09T18:27:56;27.00;47.80
27004;DHT22;14546;47.590;19.022;2023-07-09T18:30:28;26.80;48.40
27004;DHT22;14546;47.590;19.022;2023-07-09T18:32:58;26.70;48.40
27004;DHT22;14546;47.590;19.022;2023-07-09T18:35:30;26.50;48.50
27004;DHT22;14546;47.590;19.022;2023-07-09T18:37:59;26.30;48.70
27004;DHT22;14546;47.590;19.022;2023-07-09T18:40:27;26.20;49.00
27004;DHT22;14546;47.590;19.022;2023-07-09T18:42:55;26.00;49.20
27004;DHT22;14546;47.590;19.022;2023-07-09T18:45:26;25.80;49.50
27004;DHT22;14546;47.590;19.022;2023-07-09T18:47:53;25.70;49.80
27004;DHT22;14546;47.590;19.022;2023-07-09T18:50:28;25.60;50.00
27004;DHT22;14546;47.590;19.022;2023-07-09T18:52:56;25.40;50.30
27004;DHT22;14546;47.590;19.022;2023-07-09T18:55:28;25.30;50.50
27004;DHT22;14546;47.590;19.022;2023-07-09T18:57:54;25.20;50.90
27004;DHT22;14546;47.590;19.022;2023-07-09T19:00:22;25.00;50.90
27004;DHT22;14546;47.590;19.022;2023-07-09T19:02:50;24.90;51.20
27004;DHT22;14546;47.590;19.022;2023-07-09T19:05:23;24.80;51.40
27004;DHT22;14546;47.590;19.022;2023-07-09T19:07:54;24.60;51.60
27004;DHT22;14546;47.590;19.022;2023-07-09T19:10:21;24.60;51.70
27004;DHT22;14546;47.590;19.022;2023-07-09T19:12:53;24.50;51.80
27004;DHT22;14546;47.590;19.022;2023-07-09T19:15:22;24.30;52.00
27004;DHT22;14546;47.590;19.022;2023-07-09T19:17:49;24.30;52.20
27004;DHT22;14546;47.590;19.022;2023-07-09T19:20:17;24.20;52.50
27004;DHT22;14546;47.590;19.022;2023-07-09T19:22:43;24.10;52.70
27004;DHT22;14546;47.590;19.022;2023-07-09T19:25:14;24.00;52.90
27004;DHT22;14546;47.590;19.022;2023-07-09T19:27:40;23.90;53.30
27004;DHT22;14546;47.590;19.022;2023-07-09T19:30:06;23.80;53.30
27004;DHT22;14546;47.590;19.022;2023-07-09T19:32:32;23.80;53.40
27004;DHT22;14546;47.590;19.022;2023-07-09T19:34:58;23.70;53.50
27004;DHT22;14546;47.590;19.022;2023-07-09T19:37:25;23.60;53.90
27004;DHT22;14546;47.590;19.022;2023-07-09T19:39:52;23.50;54.20
27004;DHT22;14546;47.590;19.022;2023-07-09T19:42:21;23.50;54.40
27004;DHT22;14546;47.590;19.022;2023-07-09T19:44:47;23.40;54.50
27004;DHT22;14546;47.590;19.022;2023-07-09T19:47:24;23.30;54.60
27004;DHT22;14546;47.590;19.022;2023-07-09T19:49:54;23.20;55.10
27004;DHT22;14546;47.590;19.022;2023-07-09T19:52:21;23.20;55.20
27004;DHT22;14546;47.590;19.022;2023-07-09T19:54:48;23.10;55.30
27004;DHT22;14546;47.590;19.022;2023-07-09T19:57:16;23.10;55.50
27004;DHT22;14546;47.590;19.022;2023-07-09T19:59:43;23.00;55.80
27004;DHT22;14546;47.590;19.022;2023-07-09T20:02:21;22.90;56.10
27004;DHT22;14546;47.590;19.022;2023-07-09T20:04:49;22.90;56.50
27004;DHT22;14546;47.590;19.022;2023-07-09T20:07:15;22.80;56.40
27004;DHT22;14546;47.590;19.022;2023-07-09T20:09:41;22.70;56.60
27004;DHT22;14546;47.590;19.022;2023-07-09T20:12:28;22.70;56.80
27004;DHT22;14546;47.590;19.022;2023-07-09T20:14:57;22.60;57.20
27004;DHT22;14546;47.590;19.022;2023-07-09T20:17:24;22.50;56.70
27004;DHT22;14546;47.590;19.022;2023-07-09T20:19:50;22.50;56.80
27004;DHT22;14546;47.590;19.022;2023-07-09T20:22:20;22.40;57.10
27004;DHT22;14546;47.590;19.022;2023-07-09T20:24:47;22.40;57.80
27004;DHT22;14546;47.590;19.022;2023-07-09T20:27:16;22.30;57.60
27004;DHT22;14546;47.590;19.022;2023-07-09T20:29:43;22.30;57.80
27004;DHT22;14546;47.590;19.022;2023-07-09T20:32:17;22.20;57.90
27004;DHT22;14546;47.590;19.022;2023-07-09T20:34:46;22.10;58.30
27004;DHT22;14546;47.590;19.022;2023-07-09T20:37:17;22.10;58.50
27004;DHT22;14546;47.590;19.022;2023-07-09T20:39:43;22.00;58.80
27004;DHT22;14546;47.590;19.022;2023-07-09T20:42:13;22.00;59.10
27004;DHT22;14546;47.590;19.022;2023-07-09T20:44:43;22.00;59.30
27004;DHT22;14546;47.590;19.022;2023-07-09T20:47:18;22.00;59.40
27004;DHT22;14546;47.590;19.022;2023-07-09T20:49:45;21.90;59.70
27004;DHT22;14546;47.590;19.022;2023-07-09T20:52:12;21.90;59.70
27004;DHT22;14546;47.590;19.022;2023-07-09T20:54:39;21.90;59.90
27004;DHT22;14546;47.590;19.022;2023-07-09T20:57:24;21.80;60.00
27004;DHT22;14546;47.590;19.022;2023-07-09T20:59:51;21.80;60.40
27004;DHT22;14546;47.590;19.022;2023-07-09T21:02:26;21.80;60.00
27004;DHT22;14546;47.590;19.022;2023-07-09T21:04:53;21.70;60.50
27004;DHT22;14546;47.590;19.022;2023-07-09T21:07:23;21.70;60.40
27004;DHT22;14546;47.590;19.022;2023-07-09T21:09:49;21.60;60.50
27004;DHT22;14546;47.590;19.022;2023-07-09T21:12:17;21.50;60.50
27004;DHT22;14546;47.590;19.022;2023-07-09T21:14:43;21.50;60.50
27004;DHT22;14546;47.590;19.022;2023-07-09T21:17:20;21.50;60.50
27004;DHT22;14546;47.590;19.022;2023-07-09T21:19:49;21.40;60.80
27004;DHT22;14546;47.590;19.022;2023-07-09T21:22:15;21.40;60.70
27004;DHT22;14546;47.590;19.022;2023-07-09T21:24:42;21.30;60.70
27004;DHT22;14546;47.590;19.022;2023-07-09T21:27:08;21.30;60.70
27004;DHT22;14546;47.590;19.022;2023-07-09T21:29:34;21.20;60.70
27004;DHT22;14546;47.590;19.022;2023-07-09T21:32:03;21.20;61.40
27004;DHT22;14546;47.590;19.022;2023-07-09T21:34:32;21.10;60.90
27004;DHT22;14546;47.590;19.022;2023-07-09T21:37:00;21.10;61.00
27004;DHT22;14546;47.590;19.022;2023-07-09T21:39:30;21.00;60.90
27004;DHT22;14546;47.590;19.022;2023-07-09T21:41:56;21.00;61.10
27004;DHT22;14546;47.590;19.022;2023-07-09T21:44:24;21.00;61.20
27004;DHT22;14546;47.590;19.022;2023-07-09T21:46:54;20.90;61.50
27004;DHT22;14546;47.590;19.022;2023-07-09T21:49:25;20.90;61.80
27004;DHT22;14546;47.590;19.022;2023-07-09T21:51:51;20.90;61.90
27004;DHT22;14546;47.590;19.022;2023-07-09T21:56:55;20.80;62.20
27004;DHT22;14546;47.590;19.022;2023-07-09T21:59:24;20.80;62.20
27004;DHT22;14546;47.590;19.022;2023-07-09T22:01:54;20.80;62.30
27004;DHT22;14546;47.590;19.022;2023-07-09T22:04:36;20.70;62.40
27004;DHT22;14546;47.590;19.022;2023-07-09T22:07:16;20.70;63.00
27004;DHT22;14546;47.590;19.022;2023-07-09T22:09:51;20.70;63.20
27004;DHT22;14546;47.590;19.022;2023-07-09T22:12:19;20.70;63.20
27004;DHT22;14546;47.590;19.022;2023-07-09T22:14:50;20.60;63.40
27004;DHT22;14546;47.590;19.022;2023-07-09T22:17:18;20.70;63.80
27004;DHT22;14546;47.590;19.022;2023-07-09T22:19:53;20.60;63.70
27004;DHT22;14546;47.590;19.022;2023-07-09T22:22:19;20.60;63.80
27004;DHT22;14546;47.590;19.022;2023-07-09T22:24:47;20.60;63.70
27004;DHT22;14546;47.590;19.022;2023-07-09T22:27:12;20.60;63.80
27004;DHT22;14546;47.590;19.022;2023-07-09T22:29:38;20.60;64.10
27004;DHT22;14546;47.590;19.022;2023-07-09T22:32:05;20.60;64.40
27004;DHT22;14546;47.590;19.022;2023-07-09T22:34:31;20.60;64.50
27004;DHT22;14546;47.590;19.022;2023-07-09T22:36:57;20.60;64.60
27004;DHT22;14546;47.590;19.022;2023-07-09T22:39:23;20.60;64.60
27004;DHT22;14546;47.590;19.022;2023-07-09T22:41:49;20.60;64.70
27004;DHT22;14546;47.590;19.022;2023-07-09T22:44:15;20.60;64.70
27004;DHT22;14546;47.590;19.022;2023-07-09T22:46:43;20.60;64.80
27004;DHT22;14546;47.590;19.022;2023-07-09T22:49:14;20.60;64.80
27004;DHT22;14546;47.590;19.022;2023-07-09T22:51:39;20.60;64.60
27004;DHT22;14546;47.590;19.022;2023-07-09T22:54:05;20.60;64.60
27004;DHT22;14546;47.590;19.022;2023-07-09T22:56:34;20.60;64.70
27004;DHT22;14546;47.590;19.022;2023-07-09T22:59:00;20.50;65.00
27004;DHT22;14546;47.590;19.022;2023-07-09T23:01:27;20.50;65.10
27004;DHT22;14546;47.590;19.022;2023-07-09T23:03:54;20.60;65.30
27004;DHT22;14546;47.590;19.022;2023-07-09T23:06:25;20.50;65.20
27004;DHT22;14546;47.590;19.022;2023-07-09T23:08:53;20.50;65.30
27004;DHT22;14546;47.590;19.022;2023-07-09T23:11:20;20.50;65.30
27004;DHT22;14546;47.590;19.022;2023-07-09T23:13:48;20.50;65.20
27004;DHT22;14546;47.590;19.022;2023-07-09T23:16:17;20.50;65.20
27004;DHT22;14546;47.590;19.022;2023-07-09T23:18:43;20.50;65.40
27004;DHT22;14546;47.590;19.022;2023-07-09T23:21:14;20.40;65.40
27004;DHT22;14546;47.590;19.022;2023-07-09T23:23:40;20.40;65.50
27004;DHT22;14546;47.590;19.022;2023-07-09T23:26:10;20.40;65.50
27004;DHT22;14546;47.590;19.022;2023-07-09T23:28:40;20.40;65.70
27004;DHT22;14546;47.590;19.022;2023-07-09T23:31:08;20.30;65.60
27004;DHT22;14546;47.590;19.022;2023-07-09T23:33:43;20.30;65.70
27004;DHT22;14546;47.590;19.022;2023-07-09T23:36:10;20.30;65.60
27004;DHT22;14546;47.590;19.022;2023-07-09T23:38:35;20.30;65.60
27004;DHT22;14546;47.590;19.022;2023-07-09T23:41:02;20.30;65.80
27004;DHT22;14546;47.590;19.022;2023-07-09T23:43:36;20.30;65.80
27004;DHT22;14546;47.590;19.022;2023-07-09T23:46:04;20.20;65.90
27004;DHT22;14546;47.590;19.022;2023-07-09T23:48:31;20.20;65.90
27004;DHT22;14546;47.590;19.022;2023-07-09T23:51:01;20.20;65.90
27004;DHT22;14546;47.590;19.022;2023-07-09T23:53:32;20.20;66.10
27004;DHT22;14546;47.590;19.022;2023-07-09T23:56:01;20.10;66.10
27004;DHT22;14546;47.590;19.022;2023-07-09T23:58:36;20.10;66.10
